Buoy 51940

sailwx.info

Track history (hours):
 
Tides and Currents Weather Stations Pressure Air Temp Water Temp Dewpoint Dewpoint Depression Visibility Wind Speed Wind Dir Waves Ship Positions

Drifting buoy 51940

Last reported at 2014-Nov-28 04:54 UTC. Time now 2014-Nov-28 05:44 UTC.
Position N 33°43' W 175°21'.

Water temperature 19.4 ° C

Date/timePositionNaut miles runAvg speedWind from/ knotsBaromVisibWave heightAir tempDewpointWater temp
2014-Nov-28 04:54N 33°43' W 175°21'2 1.1 19.4
2014-Nov-28 03:29N 33°41' W 175°22'313.4
2014-Nov-28 03:15N 33°39' W 175°25'0 0.0 19.5
2014-Nov-28 01:19N 33°39' W 175°25'1 0.5 19.4
2014-Nov-27 23:39N 33°38' W 175°25'0 0.0 19.3
2014-Nov-27 21:59N 33°38' W 175°25'1 1.3 19.2
2014-Nov-27 21:07N 33°38' W 175°26'3 1.0 19.2
2014-Nov-27 18:19N 33°35' W 175°28'1 1.6 19.2
2014-Nov-27 17:31N 33°34' W 175°29'0 0.0
2014-Nov-27 16:41N 33°34' W 175°29'1 2.0 19.2
2014-Nov-27 16:17N 33°34' W 175°29'0 0.0 19.2
2014-Nov-27 15:49N 33°34' W 175°29'1 4.7 19.2
2014-Nov-27 15:40N 33°34' W 175°30'0 0.1 19.2
2014-Nov-27 14:02N 33°34' W 175°30'423.6 19.2
2014-Nov-27 13:52N 33°32' W 175°34'0 0.0 19.2
2014-Nov-27 10:21N 33°32' W 175°34'0 0.0 19.2
2014-Nov-27 08:47N 33°32' W 175°34'1 6.0 19.2
2014-Nov-27 08:42N 33°32' W 175°34'3 4.8 19.2
2014-Nov-27 07:58N 33°30' W 175°37'2 2.4 19.2
2014-Nov-27 07:07N 33°31' W 175°35'2 1.2 19.2
2014-Nov-27 05:29N 33°30' W 175°37'2 4.1 19.2
2014-Nov-27 05:06N 33°29' W 175°38'0 0.0 19.2
2014-Nov-27 04:04N 33°29' W 175°38'2 2.9 19.2
2014-Nov-27 03:26N 33°27' W 175°39'0 0.2 19.2
2014-Nov-27 01:34N 33°27' W 175°39'218.8 19.2
2014-Nov-27 01:29N 33°26' W 175°40'2 1.0 19.2
2014-Nov-26 23:46N 33°24' W 175°39'0 0.0 19.2
2014-Nov-26 22:20N 33°24' W 175°39'1 0.9 19.2
2014-Nov-26 21:27N 33°23' W 175°38'2 2.3 19.2
2014-Nov-26 20:33N 33°22' W 175°37'1 0.3
2014-Nov-26 18:48N 33°22' W 175°37'0 0.2 19.2
2014-Nov-26 18:19N 33°22' W 175°37'0 0.1
2014-Nov-26 17:13N 33°22' W 175°37'1 1.1 19.1
2014-Nov-26 16:40N 33°22' W 175°37'0 0.0 19.1
2014-Nov-26 15:59N 33°22' W 175°37'212.8 19.1
2014-Nov-26 15:50N 33°23' W 175°38'0 0.0 19.1
2014-Nov-26 14:10N 33°23' W 175°38'323.8 19.1
2014-Nov-26 14:03N 33°25' W 175°41'0 0.0 19.1
2014-Nov-26 12:28N 33°25' W 175°41'0 0.1 19.2
2014-Nov-26 10:44N 33°24' W 175°41'0 0.2 19.2
2014-Nov-26 09:06N 33°25' W 175°41'114.0 19.2
2014-Nov-26 09:01N 33°24' W 175°43'1 1.7 19.2
2014-Nov-26 08:14N 33°23' W 175°44'0 0.3 19.2
2014-Nov-26 07:24N 33°23' W 175°44'1 0.4 19.2
2014-Nov-26 05:13N 33°23' W 175°45'0 0.0 19.2
2014-Nov-26 04:29N 33°23' W 175°45'1 0.9 19.2
2014-Nov-26 03:34N 33°22' W 175°46'1 0.3 19.2
2014-Nov-26 01:46N 33°22' W 175°46'113.0 19.2
2014-Nov-26 01:40N 33°20' W 175°45'0 0.0 19.2
2014-Nov-25 23:56N 33°20' W 175°45'2 0.8
2014-Nov-25 21:49N 33°21' W 175°47'2 2.6 19.2
2014-Nov-25 20:56N 33°22' W 175°44'0 0.1 19.2
2014-Nov-25 20:05N 33°22' W 175°44'0 0.0 19.2
2014-Nov-25 17:48N 33°22' W 175°44'0 1.6 19.2
2014-Nov-25 17:45N 33°22' W 175°44'1 1.5 19.2
2014-Nov-25 17:13N 33°23' W 175°45'1 8.0 19.2
2014-Nov-25 17:04N 33°24' W 175°45'0 0.3 19.2
2014-Nov-25 16:16N 33°24' W 175°45'0 3.1 19.2
2014-Nov-25 16:11N 33°24' W 175°45'256.1 19.2
2014-Nov-25 16:09N 33°26' W 175°46'216.1 19.2
2014-Nov-25 16:02N 33°24' W 175°45'2 1.1 19.2
2014-Nov-25 14:20N 33°26' W 175°46'9108.3 19.2
2014-Nov-25 14:15N 33°29' W 175°56'0 0.0 19.2
2014-Nov-25 12:34N 33°29' W 175°56'0 0.0 19.3
2014-Nov-25 09:26N 33°29' W 175°56'222.5 19.3
2014-Nov-25 09:22N 33°29' W 175°58'0 0.0 19.3
2014-Nov-25 08:39N 33°29' W 175°58'484.9 19.3
2014-Nov-25 08:36N 33°26' W 176°01'3 3.8 19.3
2014-Nov-25 07:46N 33°23' W 176°04'0 0.0 19.3
2014-Nov-25 04:55N 33°23' W 176°04'219.2 19.3
2014-Nov-25 04:49N 33°22' W 176°05'0 0.0 19.3
2014-Nov-25 04:46N 33°22' W 176°05'0 0.0 19.3
2014-Nov-25 03:46N 33°22' W 176°05'326.0 19.3
2014-Nov-25 03:40N 33°20' W 176°07'0 0.0 19.3
2014-Nov-25 03:10N 33°20' W 176°07'0 0.0 19.3
2014-Nov-25 01:54N 33°20' W 176°07'228.1 19.2
2014-Nov-25 01:49N 33°18' W 176°08'0 0.0 19.2
2014-Nov-25 00:11N 33°18' W 176°08'3 1.2 19.2
2014-Nov-24 21:22N 33°15' W 176°10'1 1.5 19.3
2014-Nov-24 20:29N 33°14' W 176°11'3 1.4 19.3
2014-Nov-24 18:11N 33°11' W 176°13'0 0.0 19.4
2014-Nov-24 18:06N 33°11' W 176°13'0 0.0 19.4
2014-Nov-24 17:29N 33°11' W 176°13'0 0.0 19.4
2014-Nov-24 16:34N 33°11' W 176°13'0 0.0 19.4
2014-Nov-24 16:24N 33°11' W 176°13'224.3 19.4
2014-Nov-24 16:20N 33°11' W 176°15'0 0.0 19.4
2014-Nov-24 15:50N 33°11' W 176°15'0 0.1 19.4
2014-Nov-24 14:32N 33°11' W 176°15'2 1.1 19.4
2014-Nov-24 12:49N 33°10' W 176°17'5 1.5 19.4
2014-Nov-24 09:44N 33°06' W 176°20'0 0.0 19.4
2014-Nov-24 08:55N 33°06' W 176°20'0 0.0 19.5
2014-Nov-24 08:09N 33°06' W 176°20'216.5 19.4
2014-Nov-24 08:02N 33°05' W 176°22'1 1.1 19.5
2014-Nov-24 07:01N 33°06' W 176°21'1 0.8 19.4
2014-Nov-24 05:17N 33°05' W 176°23'0 0.2 19.5
2014-Nov-24 04:00N 33°05' W 176°23'0 0.0 19.5
2014-Nov-24 03:53N 33°05' W 176°23'0 0.0 19.5
2014-Nov-24 03:35N 33°05' W 176°23'0 0.0 19.5
2014-Nov-24 02:03N 33°05' W 176°23'126.0 19.5
2014-Nov-24 02:00N 33°04' W 176°23'0 0.0 19.5
2014-Nov-24 00:26N 33°04' W 176°23'114.1 19.6
2014-Nov-24 00:21N 33°03' W 176°25'2 0.9 19.5
2014-Nov-23 21:42N 33°05' W 176°26'0 0.0 19.5
2014-Nov-23 20:49N 33°05' W 176°26'1 0.5 19.5
2014-Nov-23 18:46N 33°05' W 176°28'1 0.7 19.4
2014-Nov-23 17:03N 33°05' W 176°29'1 1.8 19.4
2014-Nov-23 16:37N 33°06' W 176°29'216.2 19.4
2014-Nov-23 16:31N 33°07' W 176°31'2 9.3 19.4
2014-Nov-23 16:18N 33°07' W 176°34'0 0.0 19.4
2014-Nov-23 14:33N 33°07' W 176°34'0 0.0
2014-Nov-23 13:02N 33°07' W 176°34'4 1.4 19.4
2014-Nov-23 10:09N 33°06' W 176°38'1 1.3 19.5
2014-Nov-23 09:16N 33°05' W 176°40'1 1.3 19.5
2014-Nov-23 08:29N 33°05' W 176°41'1 6.0 19.5
2014-Nov-23 08:24N 33°05' W 176°40'3 1.0 19.5
2014-Nov-23 05:49N 33°05' W 176°43'1 0.6 19.7
2014-Nov-23 04:12N 33°05' W 176°44'212.2 19.7
2014-Nov-23 04:04N 33°04' W 176°46'216.2 19.8
2014-Nov-23 03:58N 33°05' W 176°44'4 2.1 19.8
2014-Nov-23 02:16N 33°04' W 176°49'0 0.0 19.9
2014-Nov-23 00:36N 33°04' W 176°49'2 0.9 19.8
2014-Nov-22 22:49N 33°05' W 176°50'1 1.5 19.8
2014-Nov-22 22:04N 33°05' W 176°52'0 0.0 19.8
2014-Nov-22 22:00N 33°05' W 176°52'2 1.8 19.8
2014-Nov-22 21:11N 33°05' W 176°53'5 1.4 19.8
2014-Nov-22 17:39N 33°06' W 176°59'5 5.6 19.9
2014-Nov-22 16:50N 33°07' W 177°05'0 0.0 19.9
2014-Nov-22 15:58N 33°07' W 177°05'3 2.6 20.0
2014-Nov-22 14:48N 33°06' W 177°08'0 0.0 19.9
2014-Nov-22 13:14N 33°06' W 177°08'7 2.6 20.0
2014-Nov-22 10:28N 33°04' W 177°17'0 0.2 20.0
2014-Nov-22 09:38N 33°04' W 177°17'0 0.2 20.0
2014-Nov-22 08:49N 33°04' W 177°17'1 7.5 19.9
2014-Nov-22 08:45N 33°04' W 177°16'2 3.2 19.9
2014-Nov-22 08:01N 33°02' W 177°18'0 0.0
2014-Nov-22 07:08N 33°02' W 177°18'5 1.9 19.8
2014-Nov-22 04:25N 33°02' W 177°24'1 4.3 19.7
2014-Nov-22 04:18N 33°02' W 177°23'2 1.2 19.7
2014-Nov-22 02:42N 33°02' W 177°26'360.8 19.5
2014-Nov-22 02:39N 33°03' W 177°29'3 9.6 19.5
2014-Nov-22 02:20N 33°02' W 177°26'8 5.0 19.5
2014-Nov-22 00:45N 33°04' W 177°35'1 0.2 19.5
2014-Nov-21 21:32N 33°04' W 177°34'10 2.9 19.4
2014-Nov-21 18:09N 33°08' W 177°45'0 0.2 19.4
2014-Nov-21 17:04N 33°08' W 177°45'0 0.0 19.3
2014-Nov-21 16:29N 33°08' W 177°45'2 1.9 19.4
2014-Nov-21 15:15N 33°10' W 177°47'0 0.0 19.3
2014-Nov-21 15:06N 33°10' W 177°47'0 0.0 19.3
2014-Nov-21 13:25N 33°10' W 177°47'7 1.6 19.3
2014-Nov-21 09:10N 33°14' W 177°54'0 0.0 19.3
2014-Nov-21 09:06N 33°14' W 177°54'1 1.5 19.3
2014-Nov-21 08:19N 33°14' W 177°55'5 5.6 19.3
2014-Nov-21 07:29N 33°19' W 177°58'0 0.0 19.3
2014-Nov-21 04:49N 33°19' W 177°58'5 2.7 19.2
2014-Nov-21 02:49N 33°24' W 177°59'0 0.0
2014-Nov-21 02:39N 33°24' W 177°59'7 4.2
2014-Nov-21 00:57N 33°31' W 177°59'0 0.0 19.2
2014-Nov-20 21:52N 33°31' W 177°59'0 0.0 19.4
2014-Nov-20 21:49N 33°31' W 177°59'8 9.9
2014-Nov-20 21:01N 33°39' W 178°01'0 0.0 19.5
2014-Nov-20 18:39N 33°39' W 178°01'6 5.3 19.5
2014-Nov-20 17:28N 33°45' W 178°02'0 0.5 19.4
2014-Nov-20 17:04N 33°45' W 178°02'358.4 19.4
2014-Nov-20 17:01N 33°42' W 178°02'3 2.4 19.4
2014-Nov-20 15:49N 33°45' W 178°02'0 0.2 19.4
2014-Nov-20 15:30N 33°45' W 178°02'314.0 19.4
2014-Nov-20 15:16N 33°48' W 178°03'0 0.2 19.4
2014-Nov-20 13:37N 33°48' W 178°03'6 1.4 19.4
2014-Nov-20 09:28N 33°53' W 178°01'1 1.5 19.4
2014-Nov-20 08:40N 33°55' W 178°01'2 2.2 19.3
2014-Nov-20 07:50N 33°56' W 178°01'4 2.2 19.3
2014-Nov-20 05:50N 34°01' W 177°59'3 2.4 19.3
2014-Nov-20 04:46N 34°03' W 177°58'4 2.9 19.3
2014-Nov-20 03:32N 34°07' W 177°58'0 0.0 19.3
2014-Nov-20 03:05N 34°07' W 177°58'112.0 19.3
2014-Nov-20 03:02N 34°07' W 177°58'421.1 19.3
2014-Nov-20 02:50N 34°11' W 177°57'0 0.0 19.3
2014-Nov-20 02:47N 34°11' W 177°57'1 0.4 19.3
2014-Nov-20 01:09N 34°11' W 177°57'6180.6
2014-Nov-20 01:07N 34°17' W 177°58'1 0.6 19.4
2014-Nov-19 23:02N 34°18' W 177°58'2 1.9
2014-Nov-19 22:13N 34°17' W 177°57'2 2.0 19.6
2014-Nov-19 21:25N 34°18' W 177°58'3 3.4 19.8
2014-Nov-19 20:29N 34°21' W 177°59'0 0.0 19.9
2014-Nov-19 19:04N 34°21' W 177°59'1 1.1
2014-Nov-19 17:53N 34°22' W 177°59'1 3.7 19.9
2014-Nov-19 17:32N 34°21' W 177°59'1 4.1 19.9
2014-Nov-19 17:13N 34°22' W 177°59'0 0.0 19.9
2014-Nov-19 16:19N 34°22' W 177°59'1 0.9 19.9
2014-Nov-19 15:40N 34°23' W 177°59'2 0.8 19.9
2014-Nov-19 13:46N 34°24' W 177°58'437.3 19.8
2014-Nov-19 13:40N 34°28' W 177°56'0 0.0 19.8
2014-Nov-19 09:49N 34°28' W 177°56'1 1.7 19.5
2014-Nov-19 09:03N 34°29' W 177°56'0 0.0 19.5
2014-Nov-19 08:57N 34°29' W 177°56'0 0.0
2014-Nov-19 08:12N 34°29' W 177°56'218.0 20.0
2014-Nov-19 08:04N 34°31' W 177°56'2 0.5 20.0
2014-Nov-19 03:58N 34°33' W 177°56'1 1.2 20.0
2014-Nov-19 03:18N 34°34' W 177°56'112.0 20.0
2014-Nov-19 03:12N 34°35' W 177°56'0 0.0 20.0
2014-Nov-19 01:23N 34°35' W 177°56'0 0.0 20.0
2014-Nov-19 01:18N 34°35' W 177°56'5 1.5 20.0
2014-Nov-18 21:43N 34°39' W 177°52'1 0.7 20.0
2014-Nov-18 20:49N 34°40' W 177°52'0 0.1
2014-Nov-18 18:01N 34°39' W 177°51'2 3.5 20.1
2014-Nov-18 17:26N 34°41' W 177°50'1 0.9 20.1
2014-Nov-18 16:45N 34°41' W 177°51'1 2.2 20.1
2014-Nov-18 16:25N 34°41' W 177°50'0 0.5 20.1
2014-Nov-18 15:51N 34°42' W 177°50'0 1.4 20.1
2014-Nov-18 15:38N 34°42' W 177°50'2 1.1 20.2
2014-Nov-18 13:58N 34°44' W 177°50'5 1.2 20.0
2014-Nov-18 10:13N 34°48' W 177°48'1 1.6 20.1
2014-Nov-18 09:23N 34°49' W 177°47'111.6 20.0
2014-Nov-18 09:19N 34°50' W 177°47'0 0.0 20.0
2014-Nov-18 08:32N 34°50' W 177°47'0 0.0 19.9
2014-Nov-18 08:28N 34°50' W 177°47'3 1.0 19.9
2014-Nov-18 05:09N 34°53' W 177°46'   20.0
Track history (hours):
 
Tides and Currents Weather Stations Pressure Air Temp Water Temp Dewpoint Dewpoint Depression Visibility Wind Speed Wind Dir Waves Ship Positions

Drifting buoy 51940

Last reported at 2014-Nov-28 04:54 UTC. Time now 2014-Nov-28 05:44 UTC.
Position N 33°43' W 175°21'.

Water temperature 19.4 ° C

Date/timePositionNaut miles runAvg speedWind from/ knotsBaromVisibWave heightAir tempDewpointWater temp
2014-Nov-28 04:54N 33°43' W 175°21'2 1.1 19.4
2014-Nov-28 03:29N 33°41' W 175°22'313.4
2014-Nov-28 03:15N 33°39' W 175°25'0 0.0 19.5
2014-Nov-28 01:19N 33°39' W 175°25'1 0.5 19.4
2014-Nov-27 23:39N 33°38' W 175°25'0 0.0 19.3
2014-Nov-27 21:59N 33°38' W 175°25'1 1.3 19.2
2014-Nov-27 21:07N 33°38' W 175°26'3 1.0 19.2
2014-Nov-27 18:19N 33°35' W 175°28'1 1.6 19.2
2014-Nov-27 17:31N 33°34' W 175°29'0 0.0
2014-Nov-27 16:41N 33°34' W 175°29'1 2.0 19.2
2014-Nov-27 16:17N 33°34' W 175°29'0 0.0 19.2
2014-Nov-27 15:49N 33°34' W 175°29'1 4.7 19.2
2014-Nov-27 15:40N 33°34' W 175°30'0 0.1 19.2
2014-Nov-27 14:02N 33°34' W 175°30'423.6 19.2
2014-Nov-27 13:52N 33°32' W 175°34'0 0.0 19.2
2014-Nov-27 10:21N 33°32' W 175°34'0 0.0 19.2
2014-Nov-27 08:47N 33°32' W 175°34'1 6.0 19.2
2014-Nov-27 08:42N 33°32' W 175°34'3 4.8 19.2
2014-Nov-27 07:58N 33°30' W 175°37'2 2.4 19.2
2014-Nov-27 07:07N 33°31' W 175°35'2 1.2 19.2
2014-Nov-27 05:29N 33°30' W 175°37'2 4.1 19.2
2014-Nov-27 05:06N 33°29' W 175°38'0 0.0 19.2
2014-Nov-27 04:04N 33°29' W 175°38'2 2.9 19.2
2014-Nov-27 03:26N 33°27' W 175°39'0 0.2 19.2
2014-Nov-27 01:34N 33°27' W 175°39'218.8 19.2
2014-Nov-27 01:29N 33°26' W 175°40'2 1.0 19.2
2014-Nov-26 23:46N 33°24' W 175°39'0 0.0 19.2
2014-Nov-26 22:20N 33°24' W 175°39'1 0.9 19.2
2014-Nov-26 21:27N 33°23' W 175°38'2 2.3 19.2
2014-Nov-26 20:33N 33°22' W 175°37'1 0.3
2014-Nov-26 18:48N 33°22' W 175°37'0 0.2 19.2
2014-Nov-26 18:19N 33°22' W 175°37'0 0.1
2014-Nov-26 17:13N 33°22' W 175°37'1 1.1 19.1
2014-Nov-26 16:40N 33°22' W 175°37'0 0.0 19.1
2014-Nov-26 15:59N 33°22' W 175°37'212.8 19.1
2014-Nov-26 15:50N 33°23' W 175°38'0 0.0 19.1
2014-Nov-26 14:10N 33°23' W 175°38'323.8 19.1
2014-Nov-26 14:03N 33°25' W 175°41'0 0.0 19.1
2014-Nov-26 12:28N 33°25' W 175°41'0 0.1 19.2
2014-Nov-26 10:44N 33°24' W 175°41'0 0.2 19.2
2014-Nov-26 09:06N 33°25' W 175°41'114.0 19.2
2014-Nov-26 09:01N 33°24' W 175°43'1 1.7 19.2
2014-Nov-26 08:14N 33°23' W 175°44'0 0.3 19.2
2014-Nov-26 07:24N 33°23' W 175°44'1 0.4 19.2
2014-Nov-26 05:13N 33°23' W 175°45'0 0.0 19.2
2014-Nov-26 04:29N 33°23' W 175°45'1 0.9 19.2
2014-Nov-26 03:34N 33°22' W 175°46'1 0.3 19.2
2014-Nov-26 01:46N 33°22' W 175°46'113.0 19.2
2014-Nov-26 01:40N 33°20' W 175°45'0 0.0 19.2
2014-Nov-25 23:56N 33°20' W 175°45'2 0.8
2014-Nov-25 21:49N 33°21' W 175°47'2 2.6 19.2
2014-Nov-25 20:56N 33°22' W 175°44'0 0.1 19.2
2014-Nov-25 20:05N 33°22' W 175°44'0 0.0 19.2
2014-Nov-25 17:48N 33°22' W 175°44'0 1.6 19.2
2014-Nov-25 17:45N 33°22' W 175°44'1 1.5 19.2
2014-Nov-25 17:13N 33°23' W 175°45'1 8.0 19.2
2014-Nov-25 17:04N 33°24' W 175°45'0 0.3 19.2
2014-Nov-25 16:16N 33°24' W 175°45'0 3.1 19.2
2014-Nov-25 16:11N 33°24' W 175°45'256.1 19.2
2014-Nov-25 16:09N 33°26' W 175°46'216.1 19.2
2014-Nov-25 16:02N 33°24' W 175°45'2 1.1 19.2
2014-Nov-25 14:20N 33°26' W 175°46'9108.3 19.2
2014-Nov-25 14:15N 33°29' W 175°56'0 0.0 19.2
2014-Nov-25 12:34N 33°29' W 175°56'0 0.0 19.3
2014-Nov-25 09:26N 33°29' W 175°56'222.5 19.3
2014-Nov-25 09:22N 33°29' W 175°58'0 0.0 19.3
2014-Nov-25 08:39N 33°29' W 175°58'484.9 19.3
2014-Nov-25 08:36N 33°26' W 176°01'3 3.8 19.3
2014-Nov-25 07:46N 33°23' W 176°04'0 0.0 19.3
2014-Nov-25 04:55N 33°23' W 176°04'219.2 19.3
2014-Nov-25 04:49N 33°22' W 176°05'0 0.0 19.3
2014-Nov-25 04:46N 33°22' W 176°05'0 0.0 19.3
2014-Nov-25 03:46N 33°22' W 176°05'326.0 19.3
2014-Nov-25 03:40N 33°20' W 176°07'0 0.0 19.3
2014-Nov-25 03:10N 33°20' W 176°07'0 0.0 19.3
2014-Nov-25 01:54N 33°20' W 176°07'228.1 19.2
2014-Nov-25 01:49N 33°18' W 176°08'0 0.0 19.2
2014-Nov-25 00:11N 33°18' W 176°08'3 1.2 19.2
2014-Nov-24 21:22N 33°15' W 176°10'1 1.5 19.3
2014-Nov-24 20:29N 33°14' W 176°11'3 1.4 19.3
2014-Nov-24 18:11N 33°11' W 176°13'0 0.0 19.4
2014-Nov-24 18:06N 33°11' W 176°13'0 0.0 19.4
2014-Nov-24 17:29N 33°11' W 176°13'0 0.0 19.4
2014-Nov-24 16:34N 33°11' W 176°13'0 0.0 19.4
2014-Nov-24 16:24N 33°11' W 176°13'224.3 19.4
2014-Nov-24 16:20N 33°11' W 176°15'0 0.0 19.4
2014-Nov-24 15:50N 33°11' W 176°15'0 0.1 19.4
2014-Nov-24 14:32N 33°11' W 176°15'2 1.1 19.4
2014-Nov-24 12:49N 33°10' W 176°17'5 1.5 19.4
2014-Nov-24 09:44N 33°06' W 176°20'0 0.0 19.4
2014-Nov-24 08:55N 33°06' W 176°20'0 0.0 19.5
2014-Nov-24 08:09N 33°06' W 176°20'216.5 19.4
2014-Nov-24 08:02N 33°05' W 176°22'1 1.1 19.5
2014-Nov-24 07:01N 33°06' W 176°21'1 0.8 19.4
2014-Nov-24 05:17N 33°05' W 176°23'0 0.2 19.5
2014-Nov-24 04:00N 33°05' W 176°23'0 0.0 19.5
2014-Nov-24 03:53N 33°05' W 176°23'0 0.0 19.5
2014-Nov-24 03:35N 33°05' W 176°23'0 0.0 19.5
2014-Nov-24 02:03N 33°05' W 176°23'126.0 19.5
2014-Nov-24 02:00N 33°04' W 176°23'0 0.0 19.5
2014-Nov-24 00:26N 33°04' W 176°23'114.1 19.6
2014-Nov-24 00:21N 33°03' W 176°25'2 0.9 19.5
2014-Nov-23 21:42N 33°05' W 176°26'0 0.0 19.5
2014-Nov-23 20:49N 33°05' W 176°26'1 0.5 19.5
2014-Nov-23 18:46N 33°05' W 176°28'1 0.7 19.4
2014-Nov-23 17:03N 33°05' W 176°29'1 1.8 19.4
2014-Nov-23 16:37N 33°06' W 176°29'216.2 19.4
2014-Nov-23 16:31N 33°07' W 176°31'2 9.3 19.4
2014-Nov-23 16:18N 33°07' W 176°34'0 0.0 19.4
2014-Nov-23 14:33N 33°07' W 176°34'0 0.0
2014-Nov-23 13:02N 33°07' W 176°34'4 1.4 19.4
2014-Nov-23 10:09N 33°06' W 176°38'1 1.3 19.5
2014-Nov-23 09:16N 33°05' W 176°40'1 1.3 19.5
2014-Nov-23 08:29N 33°05' W 176°41'1 6.0 19.5
2014-Nov-23 08:24N 33°05' W 176°40'3 1.0 19.5
2014-Nov-23 05:49N 33°05' W 176°43'1 0.6 19.7
2014-Nov-23 04:12N 33°05' W 176°44'212.2 19.7
2014-Nov-23 04:04N 33°04' W 176°46'216.2 19.8
2014-Nov-23 03:58N 33°05' W 176°44'4 2.1 19.8
2014-Nov-23 02:16N 33°04' W 176°49'0 0.0 19.9
2014-Nov-23 00:36N 33°04' W 176°49'2 0.9 19.8
2014-Nov-22 22:49N 33°05' W 176°50'1 1.5 19.8
2014-Nov-22 22:04N 33°05' W 176°52'0 0.0 19.8
2014-Nov-22 22:00N 33°05' W 176°52'2 1.8 19.8
2014-Nov-22 21:11N 33°05' W 176°53'5 1.4 19.8
2014-Nov-22 17:39N 33°06' W 176°59'5 5.6 19.9
2014-Nov-22 16:50N 33°07' W 177°05'0 0.0 19.9
2014-Nov-22 15:58N 33°07' W 177°05'3 2.6 20.0
2014-Nov-22 14:48N 33°06' W 177°08'0 0.0 19.9
2014-Nov-22 13:14N 33°06' W 177°08'7 2.6 20.0
2014-Nov-22 10:28N 33°04' W 177°17'0 0.2 20.0
2014-Nov-22 09:38N 33°04' W 177°17'0 0.2 20.0
2014-Nov-22 08:49N 33°04' W 177°17'1 7.5 19.9
2014-Nov-22 08:45N 33°04' W 177°16'2 3.2 19.9
2014-Nov-22 08:01N 33°02' W 177°18'0 0.0
2014-Nov-22 07:08N 33°02' W 177°18'5 1.9 19.8
2014-Nov-22 04:25N 33°02' W 177°24'1 4.3 19.7
2014-Nov-22 04:18N 33°02' W 177°23'2 1.2 19.7
2014-Nov-22 02:42N 33°02' W 177°26'360.8 19.5
2014-Nov-22 02:39N 33°03' W 177°29'3 9.6 19.5
2014-Nov-22 02:20N 33°02' W 177°26'8 5.0 19.5
2014-Nov-22 00:45N 33°04' W 177°35'1 0.2 19.5
2014-Nov-21 21:32N 33°04' W 177°34'10 2.9 19.4
2014-Nov-21 18:09N 33°08' W 177°45'0 0.2 19.4
2014-Nov-21 17:04N 33°08' W 177°45'0 0.0 19.3
2014-Nov-21 16:29N 33°08' W 177°45'2 1.9 19.4
2014-Nov-21 15:15N 33°10' W 177°47'0 0.0 19.3
2014-Nov-21 15:06N 33°10' W 177°47'0 0.0 19.3
2014-Nov-21 13:25N 33°10' W 177°47'7 1.6 19.3
2014-Nov-21 09:10N 33°14' W 177°54'0 0.0 19.3
2014-Nov-21 09:06N 33°14' W 177°54'1 1.5 19.3
2014-Nov-21 08:19N 33°14' W 177°55'5 5.6 19.3
2014-Nov-21 07:29N 33°19' W 177°58'0 0.0 19.3
2014-Nov-21 04:49N 33°19' W 177°58'5 2.7 19.2
2014-Nov-21 02:49N 33°24' W 177°59'0 0.0
2014-Nov-21 02:39N 33°24' W 177°59'7 4.2
2014-Nov-21 00:57N 33°31' W 177°59'0 0.0 19.2
2014-Nov-20 21:52N 33°31' W 177°59'0 0.0 19.4
2014-Nov-20 21:49N 33°31' W 177°59'8 9.9
2014-Nov-20 21:01N 33°39' W 178°01'0 0.0 19.5
2014-Nov-20 18:39N 33°39' W 178°01'6 5.3 19.5
2014-Nov-20 17:28N 33°45' W 178°02'0 0.5 19.4
2014-Nov-20 17:04N 33°45' W 178°02'358.4 19.4
2014-Nov-20 17:01N 33°42' W 178°02'3 2.4 19.4
2014-Nov-20 15:49N 33°45' W 178°02'0 0.2 19.4
2014-Nov-20 15:30N 33°45' W 178°02'314.0 19.4
2014-Nov-20 15:16N 33°48' W 178°03'0 0.2 19.4
2014-Nov-20 13:37N 33°48' W 178°03'6 1.4 19.4
2014-Nov-20 09:28N 33°53' W 178°01'1 1.5 19.4
2014-Nov-20 08:40N 33°55' W 178°01'2 2.2 19.3
2014-Nov-20 07:50N 33°56' W 178°01'4 2.2 19.3
2014-Nov-20 05:50N 34°01' W 177°59'3 2.4 19.3
2014-Nov-20 04:46N 34°03' W 177°58'4 2.9 19.3
2014-Nov-20 03:32N 34°07' W 177°58'0 0.0 19.3
2014-Nov-20 03:05N 34°07' W 177°58'112.0 19.3
2014-Nov-20 03:02N 34°07' W 177°58'421.1 19.3
2014-Nov-20 02:50N 34°11' W 177°57'0 0.0 19.3
2014-Nov-20 02:47N 34°11' W 177°57'1 0.4 19.3
2014-Nov-20 01:09N 34°11' W 177°57'6180.6
2014-Nov-20 01:07N 34°17' W 177°58'1 0.6 19.4
2014-Nov-19 23:02N 34°18' W 177°58'2 1.9
2014-Nov-19 22:13N 34°17' W 177°57'2 2.0 19.6
2014-Nov-19 21:25N 34°18' W 177°58'3 3.4 19.8
2014-Nov-19 20:29N 34°21' W 177°59'0 0.0 19.9
2014-Nov-19 19:04N 34°21' W 177°59'1 1.1
2014-Nov-19 17:53N 34°22' W 177°59'1 3.7 19.9
2014-Nov-19 17:32N 34°21' W 177°59'1 4.1 19.9
2014-Nov-19 17:13N 34°22' W 177°59'0 0.0 19.9
2014-Nov-19 16:19N 34°22' W 177°59'1 0.9 19.9
2014-Nov-19 15:40N 34°23' W 177°59'2 0.8 19.9
2014-Nov-19 13:46N 34°24' W 177°58'437.3 19.8
2014-Nov-19 13:40N 34°28' W 177°56'0 0.0 19.8
2014-Nov-19 09:49N 34°28' W 177°56'1 1.7 19.5
2014-Nov-19 09:03N 34°29' W 177°56'0 0.0 19.5
2014-Nov-19 08:57N 34°29' W 177°56'0 0.0
2014-Nov-19 08:12N 34°29' W 177°56'218.0 20.0
2014-Nov-19 08:04N 34°31' W 177°56'2 0.5 20.0
2014-Nov-19 03:58N 34°33' W 177°56'1 1.2 20.0
2014-Nov-19 03:18N 34°34' W 177°56'112.0 20.0
2014-Nov-19 03:12N 34°35' W 177°56'0 0.0 20.0
2014-Nov-19 01:23N 34°35' W 177°56'0 0.0 20.0
2014-Nov-19 01:18N 34°35' W 177°56'5 1.5 20.0
2014-Nov-18 21:43N 34°39' W 177°52'1 0.7 20.0
2014-Nov-18 20:49N 34°40' W 177°52'0 0.1
2014-Nov-18 18:01N 34°39' W 177°51'2 3.5 20.1
2014-Nov-18 17:26N 34°41' W 177°50'1 0.9 20.1
2014-Nov-18 16:45N 34°41' W 177°51'1 2.2 20.1
2014-Nov-18 16:25N 34°41' W 177°50'0 0.5 20.1
2014-Nov-18 15:51N 34°42' W 177°50'0 1.4 20.1
2014-Nov-18 15:38N 34°42' W 177°50'2 1.1 20.2
2014-Nov-18 13:58N 34°44' W 177°50'5 1.2 20.0
2014-Nov-18 10:13N 34°48' W 177°48'1 1.6 20.1
2014-Nov-18 09:23N 34°49' W 177°47'111.6 20.0
2014-Nov-18 09:19N 34°50' W 177°47'0 0.0 20.0
2014-Nov-18 08:32N 34°50' W 177°47'0 0.0 19.9
2014-Nov-18 08:28N 34°50' W 177°47'3 1.0 19.9
2014-Nov-18 05:09N 34°53' W 177°46'   20.0

Dump ship's entire track history